createdAt,value
2022-11-18T00:01:33.425Z,16.27
2022-11-18T00:04:00.136Z,13.13
2022-11-18T00:06:28.429Z,16.55
2022-11-18T00:08:55.628Z,14.90
2022-11-18T00:11:43.594Z,13.90
2022-11-18T00:14:19.196Z,11.15
2022-11-18T00:16:50.725Z,11.32
2022-11-18T00:19:18.791Z,12.60
2022-11-18T00:21:45.485Z,14.07
2022-11-18T00:24:11.964Z,13.73
2022-11-18T00:26:38.434Z,13.38
2022-11-18T00:29:05.009Z,13.85
2022-11-18T00:31:31.443Z,13.50
2022-11-18T00:33:57.846Z,17.40
2022-11-18T00:36:24.191Z,15.68
2022-11-18T00:38:50.588Z,12.93
2022-11-18T00:41:17.001Z,13.20
2022-11-18T00:43:43.418Z,11.57
2022-11-18T00:46:13.453Z,13.32
2022-11-18T00:48:40.743Z,16.23
2022-11-18T00:51:18.089Z,12.82
2022-11-18T00:53:44.896Z,12.68
2022-11-18T00:56:11.551Z,14.73
2022-11-18T00:58:37.969Z,14.40
2022-11-18T01:01:04.726Z,13.10
2022-11-18T01:06:58.614Z,15.93
2022-11-18T01:09:25.096Z,15.75
2022-11-18T01:12:10.120Z,16.08
2022-11-18T01:14:36.552Z,15.63
2022-11-18T01:17:03.127Z,13.18
2022-11-18T01:19:29.842Z,14.15
2022-11-18T01:22:02.829Z,13.95
2022-11-18T01:24:30.875Z,11.60
2022-11-18T01:26:57.408Z,17.35
2022-11-18T01:29:23.838Z,16.02
2022-11-18T01:32:22.637Z,16.52
2022-11-18T01:34:36.747Z,18.30
2022-11-18T01:37:03.156Z,13.10
2022-11-18T01:39:31.371Z,19.55
2022-11-18T01:41:57.743Z,15.30
2022-11-18T01:44:59.462Z,17.25
2022-11-18T01:47:31.773Z,12.55
2022-11-18T01:49:59.336Z,14.93
2022-11-18T01:52:27.001Z,20.00
2022-11-18T01:54:57.750Z,19.02
2022-11-18T01:57:27.505Z,16.80
2022-11-18T01:59:57.979Z,12.85
2022-11-18T02:02:24.568Z,14.02
2022-11-18T02:04:54.052Z,12.20
2022-11-18T02:07:22.307Z,11.50
2022-11-18T02:09:50.013Z,13.45
2022-11-18T02:12:16.551Z,15.80
2022-11-18T02:14:46.350Z,14.32
2022-11-18T02:17:32.979Z,14.00
2022-11-18T02:20:28.356Z,11.68
2022-11-18T02:22:54.667Z,12.90
2022-11-18T02:25:26.474Z,14.18
2022-11-18T02:28:17.344Z,12.40
2022-11-18T02:30:53.983Z,16.42
2022-11-18T02:33:29.238Z,13.93
2022-11-18T02:36:09.715Z,13.07
2022-11-18T02:38:43.723Z,12.80
2022-11-18T02:41:16.246Z,13.50
2022-11-18T02:43:54.216Z,12.07
2022-11-18T02:46:29.000Z,15.88
2022-11-18T02:48:56.152Z,19.42
2022-11-18T02:51:27.057Z,15.48
2022-11-18T02:53:57.305Z,16.35
2022-11-18T02:56:26.133Z,17.73
2022-11-18T02:58:52.753Z,14.82
2022-11-18T03:01:29.090Z,14.82
2022-11-18T03:03:55.602Z,15.38
2022-11-18T03:06:28.283Z,12.43
2022-11-18T03:09:03.039Z,13.90
2022-11-18T03:11:32.998Z,14.48
2022-11-18T03:14:14.612Z,10.25
2022-11-18T03:16:51.350Z,10.00
2022-11-18T03:19:38.403Z,11.65
2022-11-18T03:22:13.293Z,9.02
2022-11-18T03:24:50.959Z,10.55
2022-11-18T03:27:24.636Z,8.98
2022-11-18T03:30:06.869Z,13.75
2022-11-18T03:32:48.782Z,11.43
2022-11-18T03:35:21.103Z,14.07
2022-11-18T03:37:52.219Z,10.70
2022-11-18T03:40:23.266Z,15.00
2022-11-18T03:42:55.397Z,13.07
2022-11-18T03:45:30.513Z,12.65
2022-11-18T03:48:08.431Z,12.82
2022-11-18T03:50:41.632Z,11.60
2022-11-18T03:53:10.589Z,10.93
2022-11-18T03:55:42.049Z,11.85
2022-11-18T03:58:27.849Z,11.48
2022-11-18T04:00:59.313Z,11.63
2022-11-18T04:03:28.557Z,11.43
2022-11-18T04:06:07.051Z,12.95
2022-11-18T04:08:39.700Z,13.95
2022-11-18T04:11:36.629Z,11.48
2022-11-18T04:14:06.945Z,11.75
2022-11-18T04:16:42.078Z,11.40
2022-11-18T04:19:08.584Z,11.52
2022-11-18T04:21:35.264Z,12.63
2022-11-18T04:24:02.027Z,10.73
2022-11-18T04:26:28.529Z,8.80
2022-11-18T04:28:54.884Z,9.63
2022-11-18T04:31:21.242Z,13.88
2022-11-18T04:33:47.561Z,11.90
2022-11-18T04:36:13.897Z,12.38
2022-11-18T04:38:40.217Z,12.82
2022-11-18T04:41:06.621Z,10.00
2022-11-18T04:43:33.011Z,13.63
2022-11-18T04:45:59.351Z,14.30
2022-11-18T04:48:25.721Z,14.13
2022-11-18T04:50:52.103Z,14.30
2022-11-18T04:53:18.491Z,14.77
2022-11-18T04:55:44.800Z,13.75
2022-11-18T04:58:11.755Z,14.95
2022-11-18T05:00:38.185Z,13.30
2022-11-18T05:03:04.625Z,15.93
2022-11-18T05:05:30.997Z,15.82
2022-11-18T05:07:57.349Z,15.95
2022-11-18T05:10:23.768Z,16.42
2022-11-18T05:12:50.233Z,14.88
2022-11-18T05:15:17.988Z,14.50
2022-11-18T05:17:44.473Z,14.73
2022-11-18T05:20:11.933Z,15.85
2022-11-18T05:22:38.307Z,18.38
2022-11-18T05:25:04.950Z,14.85
2022-11-18T05:27:31.320Z,13.60
2022-11-18T05:29:57.771Z,16.30
2022-11-18T05:32:24.131Z,16.33
2022-11-18T05:34:50.581Z,16.83
2022-11-18T05:37:17.067Z,14.88
2022-11-18T05:39:43.423Z,13.85
2022-11-18T05:42:29.319Z,16.63
2022-11-18T05:47:25.742Z,19.83
2022-11-18T05:49:52.141Z,16.38
2022-11-18T05:52:18.467Z,12.45
2022-11-18T05:54:49.645Z,12.70
2022-11-18T05:57:16.071Z,14.98
2022-11-18T05:59:42.408Z,14.27
2022-11-18T06:02:22.473Z,16.10
2022-11-18T06:04:53.126Z,18.42
2022-11-18T06:07:27.555Z,13.23
2022-11-18T06:10:03.510Z,18.83
2022-11-18T06:12:38.972Z,19.70
2022-11-18T06:15:28.406Z,16.60
2022-11-18T06:17:54.721Z,14.98
2022-11-18T06:20:22.082Z,18.95
2022-11-18T06:22:52.187Z,15.35
2022-11-18T06:25:19.132Z,15.70
2022-11-18T06:27:47.132Z,20.45
2022-11-18T06:30:14.284Z,17.00
2022-11-18T06:32:43.042Z,20.67
2022-11-18T06:35:09.957Z,19.90
2022-11-18T06:37:36.277Z,20.77
2022-11-18T06:40:03.683Z,16.48
2022-11-18T06:42:48.876Z,16.48
2022-11-18T06:45:15.452Z,14.13
2022-11-18T06:47:41.896Z,19.08
2022-11-18T06:50:08.917Z,15.68
2022-11-18T06:52:35.285Z,14.18
2022-11-18T06:55:01.729Z,13.65
2022-11-18T06:57:28.767Z,14.80
2022-11-18T07:00:00.621Z,13.75
2022-11-18T07:02:28.342Z,14.65
2022-11-18T07:04:54.701Z,9.73
2022-11-18T07:07:21.305Z,11.25
2022-11-18T07:09:47.727Z,6.00
2022-11-18T07:12:14.116Z,9.25
2022-11-18T07:14:40.467Z,9.13
2022-11-18T07:17:06.824Z,7.20
2022-11-18T07:19:35.915Z,7.65
2022-11-18T07:22:02.619Z,9.07
2022-11-18T07:24:29.022Z,9.55
2022-11-18T07:26:55.456Z,9.68
2022-11-18T07:29:21.770Z,8.45
2022-11-18T07:31:48.116Z,6.20
2022-11-18T07:34:14.557Z,6.90
2022-11-18T07:36:40.901Z,7.20
2022-11-18T07:39:07.602Z,4.63
2022-11-18T07:41:34.698Z,6.13
2022-11-18T07:44:02.871Z,7.95
2022-11-18T07:46:37.186Z,6.80
2022-11-18T07:49:06.793Z,5.55
2022-11-18T07:51:36.160Z,5.03
2022-11-18T07:54:13.762Z,3.92
2022-11-18T07:56:40.397Z,4.78
2022-11-18T07:59:07.051Z,4.60
2022-11-18T08:01:33.477Z,6.93
2022-11-18T08:04:11.509Z,5.35
2022-11-18T08:06:39.406Z,5.35
2022-11-18T08:09:06.869Z,5.30
2022-11-18T08:11:33.745Z,4.45
2022-11-18T08:14:00.172Z,3.80
2022-11-18T08:16:27.294Z,5.60
2022-11-18T08:18:54.348Z,6.45
2022-11-18T08:21:22.649Z,5.93
2022-11-18T08:23:51.511Z,5.20
2022-11-18T08:26:18.155Z,9.20
2022-11-18T08:28:45.333Z,4.63
2022-11-18T08:31:14.167Z,3.65
2022-11-18T08:33:41.237Z,4.30
2022-11-18T08:36:10.138Z,4.07
2022-11-18T08:38:36.656Z,3.17
2022-11-18T08:41:03.967Z,2.70
2022-11-18T08:43:30.297Z,3.15
2022-11-18T08:45:56.688Z,1.67
2022-11-18T08:48:23.083Z,4.63
2022-11-18T08:50:49.627Z,1.77
2022-11-18T08:53:16.074Z,3.30
2022-11-18T08:55:42.528Z,3.55
2022-11-18T08:58:08.918Z,2.35
2022-11-18T09:00:35.421Z,1.67
2022-11-18T09:03:01.738Z,6.93
2022-11-18T09:05:28.092Z,15.15
2022-11-18T09:07:54.461Z,7.13
2022-11-18T09:10:20.872Z,12.60
2022-11-18T09:12:47.221Z,3.25
2022-11-18T09:15:14.818Z,5.22
2022-11-18T09:17:41.366Z,3.17
2022-11-18T09:20:08.394Z,2.28
2022-11-18T09:22:37.081Z,2.30
2022-11-18T09:25:03.535Z,3.85
2022-11-18T09:27:29.896Z,2.00
2022-11-18T09:29:56.291Z,2.45
2022-11-18T09:32:22.650Z,1.88
2022-11-18T09:34:49.038Z,2.55
2022-11-18T09:37:15.457Z,2.17
2022-11-18T09:39:41.812Z,3.00
2022-11-18T09:42:19.952Z,1.60
2022-11-18T09:45:01.632Z,2.25
2022-11-18T09:47:32.248Z,3.05
2022-11-18T09:50:20.397Z,1.90
2022-11-18T09:53:00.712Z,2.42
2022-11-18T09:55:28.913Z,1.88
2022-11-18T09:57:57.625Z,1.92
2022-11-18T10:00:27.017Z,2.60
2022-11-18T10:02:53.593Z,2.72
2022-11-18T10:05:24.135Z,3.72
2022-11-18T10:08:21.943Z,3.55
2022-11-18T10:11:19.203Z,1.80
2022-11-18T10:14:19.474Z,6.43
2022-11-18T10:17:10.564Z,4.38
2022-11-18T10:20:16.584Z,5.70
2022-11-18T10:23:02.487Z,2.33
2022-11-18T10:27:56.643Z,2.28
2022-11-18T10:30:26.000Z,4.00
2022-11-18T10:32:58.402Z,2.45
2022-11-18T10:35:36.452Z,2.30
2022-11-18T10:38:18.823Z,5.05
2022-11-18T10:41:02.325Z,2.17
2022-11-18T10:43:44.028Z,2.88
2022-11-18T10:46:28.023Z,3.28
2022-11-18T10:49:09.405Z,4.80
2022-11-18T10:51:36.653Z,2.83
2022-11-18T10:54:20.120Z,3.45
2022-11-18T10:56:51.121Z,2.55
2022-11-18T10:59:50.985Z,3.47
2022-11-18T11:02:23.599Z,2.42
2022-11-18T11:04:51.626Z,3.58
2022-11-18T11:07:37.465Z,2.58
2022-11-18T11:12:35.074Z,5.22
2022-11-18T11:15:09.007Z,3.25
2022-11-18T11:18:15.809Z,3.78
2022-11-18T11:23:17.766Z,3.97
2022-11-18T11:29:20.456Z,3.15
2022-11-18T11:32:14.552Z,2.30
2022-11-18T11:35:07.209Z,2.15
2022-11-18T11:37:56.534Z,3.90
2022-11-18T11:40:34.853Z,3.63
2022-11-18T11:43:22.401Z,2.58
2022-11-18T11:46:02.166Z,2.53
2022-11-18T11:48:56.932Z,3.15
2022-11-18T11:51:36.690Z,2.83
2022-11-18T11:54:11.778Z,2.55
2022-11-18T11:56:45.066Z,5.07
2022-11-18T11:59:23.456Z,2.47
2022-11-18T12:01:58.967Z,7.03
2022-11-18T12:07:23.536Z,3.13
2022-11-18T12:10:04.499Z,9.02
2022-11-18T12:12:54.332Z,6.53
2022-11-18T12:15:39.010Z,1.95
2022-11-18T12:18:24.329Z,1.85
2022-11-18T12:20:55.051Z,1.65
2022-11-18T12:23:25.474Z,3.22
2022-11-18T12:26:11.245Z,2.55
2022-11-18T12:28:37.567Z,3.55
2022-11-18T12:31:19.223Z,8.18
2022-11-18T12:33:52.959Z,4.88
2022-11-18T12:36:40.184Z,3.97
2022-11-18T12:39:24.762Z,5.28
2022-11-18T12:42:17.698Z,2.20
2022-11-18T12:44:47.048Z,3.45
2022-11-18T12:47:15.325Z,3.17
2022-11-18T12:49:44.352Z,5.68
2022-11-18T12:52:37.072Z,5.30
2022-11-18T12:55:13.271Z,2.83
2022-11-18T12:57:41.276Z,2.42
2022-11-18T13:00:22.825Z,1.85
2022-11-18T13:02:53.998Z,1.70
2022-11-18T13:05:22.370Z,2.80
2022-11-18T13:08:14.394Z,1.92
2022-11-18T13:10:43.347Z,2.05
2022-11-18T13:13:36.338Z,1.40
2022-11-18T13:16:37.845Z,2.85
2022-11-18T13:19:04.658Z,1.45
2022-11-18T13:21:49.435Z,4.20
2022-11-18T13:24:18.869Z,3.10
2022-11-18T13:26:46.873Z,3.13
2022-11-18T13:29:28.008Z,3.38
2022-11-18T13:32:09.995Z,0.95
2022-11-18T13:34:57.154Z,3.05
2022-11-18T13:37:26.736Z,2.33
2022-11-18T13:39:53.533Z,2.30
2022-11-18T13:42:21.578Z,2.28
2022-11-18T13:44:54.374Z,3.03
2022-11-18T13:47:48.546Z,3.55
2022-11-18T13:50:32.581Z,2.67
2022-11-18T13:53:18.919Z,2.53
2022-11-18T13:55:57.499Z,3.35
2022-11-18T13:59:10.408Z,2.63
2022-11-18T14:01:30.425Z,3.47
2022-11-18T14:04:16.076Z,3.10
2022-11-18T14:06:42.458Z,5.85
2022-11-18T14:09:18.530Z,1.73
2022-11-18T14:11:57.091Z,4.47
2022-11-18T14:14:32.846Z,2.75
2022-11-18T14:17:23.517Z,2.35
2022-11-18T14:19:53.130Z,1.50
2022-11-18T14:22:22.982Z,3.65
2022-11-18T14:24:58.151Z,2.15
2022-11-18T14:27:28.396Z,2.20
2022-11-18T14:29:54.793Z,2.50
2022-11-18T14:32:21.536Z,5.80
2022-11-18T14:35:00.716Z,4.53
2022-11-18T14:37:27.675Z,4.45
2022-11-18T14:39:55.953Z,3.38
2022-11-18T14:42:23.575Z,3.58
2022-11-18T14:44:50.722Z,2.53
2022-11-18T14:47:31.320Z,1.63
2022-11-18T14:49:57.917Z,2.90
2022-11-18T14:52:24.495Z,3.83
2022-11-18T14:54:54.862Z,2.95
2022-11-18T14:57:21.448Z,4.25
2022-11-18T14:59:47.850Z,4.43
2022-11-18T15:02:16.941Z,6.45
2022-11-18T15:04:43.777Z,5.80
2022-11-18T15:07:17.248Z,2.38
2022-11-18T15:09:48.101Z,2.50
2022-11-18T15:12:14.764Z,1.98
2022-11-18T15:14:41.106Z,3.25
2022-11-18T15:17:07.529Z,3.38
2022-11-18T15:19:34.484Z,3.72
2022-11-18T15:22:00.837Z,3.33
2022-11-18T15:24:27.154Z,2.40
2022-11-18T15:26:53.526Z,2.45
2022-11-18T15:29:23.221Z,3.05
2022-11-18T15:31:49.751Z,4.15
2022-11-18T15:34:18.062Z,6.30
2022-11-18T15:36:44.755Z,3.03
2022-11-18T15:39:12.142Z,3.83
2022-11-18T15:41:40.405Z,2.85
2022-11-18T15:44:06.865Z,3.33
2022-11-18T15:46:33.814Z,3.97
2022-11-18T15:49:01.031Z,5.00
2022-11-18T15:51:29.205Z,5.43
2022-11-18T15:53:55.575Z,5.47
2022-11-18T15:56:27.794Z,4.55
2022-11-18T15:58:59.140Z,4.28
2022-11-18T16:01:27.918Z,4.05
2022-11-18T16:03:54.766Z,6.35
2022-11-18T16:06:22.316Z,2.67
2022-11-18T16:08:50.393Z,4.03
2022-11-18T16:11:38.762Z,4.40
2022-11-18T16:14:06.867Z,2.90
2022-11-18T16:16:34.371Z,2.70
2022-11-18T16:19:02.711Z,4.55
2022-11-18T16:21:31.570Z,4.93
2022-11-18T16:23:59.737Z,4.72
2022-11-18T16:26:27.021Z,2.47
2022-11-18T16:28:53.939Z,3.35
2022-11-18T16:31:39.326Z,6.72
2022-11-18T16:34:12.733Z,4.32
2022-11-18T16:36:41.723Z,6.20
2022-11-18T16:39:12.643Z,6.57
2022-11-18T16:41:40.430Z,5.22
2022-11-18T16:44:13.316Z,6.53
2022-11-18T16:46:42.407Z,9.35
2022-11-18T16:49:12.061Z,5.47
2022-11-18T16:51:40.278Z,10.82
2022-11-18T16:54:07.016Z,9.55
2022-11-18T16:56:35.648Z,9.52
2022-11-18T16:59:10.953Z,7.63
2022-11-18T17:01:37.292Z,6.18
2022-11-18T17:04:03.890Z,6.80
2022-11-18T17:06:31.506Z,5.38
2022-11-18T17:08:59.009Z,5.68
2022-11-18T17:11:26.002Z,8.90
2022-11-18T17:13:57.765Z,19.10
2022-11-18T17:16:25.831Z,12.57
2022-11-18T17:19:00.093Z,11.70
2022-11-18T17:21:28.239Z,9.98
2022-11-18T17:23:55.443Z,8.40
2022-11-18T17:26:24.457Z,11.13
2022-11-18T17:28:51.243Z,11.95
2022-11-18T17:31:20.263Z,5.60
2022-11-18T17:33:48.234Z,6.88
2022-11-18T17:36:20.559Z,6.78
2022-11-18T17:38:50.000Z,8.73
2022-11-18T17:41:37.159Z,6.18
2022-11-18T17:44:05.679Z,6.10
2022-11-18T17:46:37.502Z,7.60
2022-11-18T17:49:06.944Z,11.02
2022-11-18T17:51:33.300Z,7.28
2022-11-18T17:53:59.697Z,7.72
2022-11-18T17:56:26.039Z,6.90
2022-11-18T17:58:55.610Z,8.00
2022-11-18T18:01:22.866Z,6.53
2022-11-18T18:03:49.583Z,7.70
2022-11-18T18:06:16.915Z,7.80
2022-11-18T18:08:43.321Z,8.27
2022-11-18T18:11:15.656Z,8.48
2022-11-18T18:14:01.322Z,7.63
2022-11-18T18:16:29.594Z,7.30
2022-11-18T18:18:57.523Z,8.77
2022-11-18T18:21:24.055Z,8.93
2022-11-18T18:23:50.738Z,8.60
2022-11-18T18:26:17.604Z,8.40
2022-11-18T18:28:44.923Z,8.50
2022-11-18T18:31:13.186Z,7.88
2022-11-18T18:33:40.279Z,9.30
2022-11-18T18:36:10.015Z,8.75
2022-11-18T18:38:37.977Z,7.85
2022-11-18T18:41:07.577Z,9.10
2022-11-18T18:43:34.143Z,9.98
2022-11-18T18:46:28.590Z,7.82
2022-11-18T18:48:56.892Z,9.25
2022-11-18T18:51:23.350Z,9.57
2022-11-18T18:53:49.752Z,8.35
2022-11-18T18:56:16.087Z,9.82
2022-11-18T18:58:42.444Z,10.07
2022-11-18T19:01:14.118Z,13.05
2022-11-18T19:03:42.099Z,12.48
2022-11-18T19:06:48.735Z,15.55
2022-11-18T19:09:06.745Z,15.40
2022-11-18T19:11:52.173Z,11.02
2022-11-18T19:14:19.988Z,9.57
2022-11-18T19:16:47.851Z,8.20
2022-11-18T19:19:40.288Z,6.88
2022-11-18T19:22:07.931Z,6.57
2022-11-18T19:24:48.669Z,5.85
2022-11-18T19:27:16.132Z,7.50
2022-11-18T19:29:42.467Z,5.20
2022-11-18T19:32:08.807Z,6.38
2022-11-18T19:34:35.297Z,9.32
2022-11-18T19:37:02.404Z,5.72
2022-11-18T19:39:28.842Z,8.00
2022-11-18T19:41:55.197Z,9.43
2022-11-18T19:44:21.565Z,7.45
2022-11-18T19:46:48.041Z,10.77
2022-11-18T19:49:14.468Z,17.80
2022-11-18T19:51:40.846Z,13.63
2022-11-18T19:54:07.291Z,8.75
2022-11-18T19:56:33.689Z,7.72
2022-11-18T19:59:00.056Z,8.15
2022-11-18T20:01:28.535Z,7.70
2022-11-18T20:04:01.822Z,6.38
2022-11-18T20:06:28.606Z,5.78
2022-11-18T20:08:55.822Z,7.22
2022-11-18T20:11:23.349Z,6.25
2022-11-18T20:13:50.337Z,4.47
2022-11-18T20:16:19.437Z,3.78
2022-11-18T20:18:50.243Z,4.03
2022-11-18T20:21:21.681Z,4.80
2022-11-18T20:23:49.678Z,3.15
2022-11-18T20:26:18.649Z,2.97
2022-11-18T20:28:46.412Z,3.08
2022-11-18T20:31:16.231Z,3.50
2022-11-18T20:33:48.424Z,2.22
2022-11-18T20:36:20.205Z,4.32
2022-11-18T20:38:51.982Z,2.25
2022-11-18T20:41:19.278Z,2.65
2022-11-18T20:43:48.013Z,2.08
2022-11-18T20:46:20.039Z,1.92
2022-11-18T20:48:47.313Z,2.55
2022-11-18T20:51:23.326Z,2.53
2022-11-18T20:53:51.024Z,2.00
2022-11-18T20:56:23.078Z,3.42
2022-11-18T20:58:49.772Z,2.22
2022-11-18T21:01:24.942Z,4.05
2022-11-18T21:03:59.575Z,3.60
2022-11-18T21:06:28.828Z,3.20
2022-11-18T21:09:04.130Z,4.97
2022-11-18T21:11:33.294Z,6.30
2022-11-18T21:14:23.495Z,4.38
2022-11-18T21:16:55.398Z,3.08
2022-11-18T21:19:22.625Z,5.03
2022-11-18T21:21:51.870Z,2.78
2022-11-18T21:24:19.931Z,5.57
2022-11-18T21:26:48.487Z,4.75
2022-11-18T21:29:16.019Z,4.22
2022-11-18T21:31:43.499Z,6.30
2022-11-18T21:34:10.977Z,6.25
2022-11-18T21:36:43.875Z,3.03
2022-11-18T21:39:11.798Z,2.55
2022-11-18T21:41:38.672Z,2.92
2022-11-18T21:44:09.346Z,3.90
2022-11-18T21:46:37.263Z,9.57
2022-11-18T21:49:04.825Z,5.80
2022-11-18T21:51:32.158Z,4.07
2022-11-18T21:53:59.862Z,4.25
2022-11-18T21:56:30.974Z,6.43
2022-11-18T21:58:59.829Z,4.95
2022-11-18T22:01:29.467Z,6.22
2022-11-18T22:03:58.386Z,6.63
2022-11-18T22:06:26.147Z,8.38
2022-11-18T22:08:53.085Z,8.85
2022-11-18T22:11:22.255Z,4.43
2022-11-18T22:13:50.897Z,6.60
2022-11-18T22:16:19.379Z,5.45
2022-11-18T22:18:53.076Z,8.40
2022-11-18T22:21:22.847Z,7.18
2022-11-18T22:23:49.410Z,7.20
2022-11-18T22:26:18.399Z,6.63
2022-11-18T22:28:45.938Z,5.13
2022-11-18T22:31:15.512Z,6.65
2022-11-18T22:33:42.401Z,4.97
2022-11-18T22:36:13.717Z,6.25
2022-11-18T22:38:41.061Z,5.82
2022-11-18T22:41:33.817Z,3.55
2022-11-18T22:44:06.724Z,3.97
2022-11-18T22:46:34.755Z,4.15
2022-11-18T22:49:01.253Z,2.60
2022-11-18T22:51:27.598Z,2.20
2022-11-18T22:54:15.897Z,2.03
2022-11-18T22:56:40.446Z,2.15
2022-11-18T22:59:06.746Z,1.88
2022-11-18T23:01:33.090Z,2.53
2022-11-18T23:03:59.431Z,1.92
2022-11-18T23:06:25.798Z,3.50
2022-11-18T23:08:52.116Z,3.70
2022-11-18T23:11:38.271Z,2.55
2022-11-18T23:14:07.402Z,4.20
2022-11-18T23:16:37.159Z,3.30
2022-11-18T23:19:06.164Z,2.45
2022-11-18T23:21:32.801Z,3.30
2022-11-18T23:23:59.267Z,2.67
2022-11-18T23:26:25.823Z,1.92
2022-11-18T23:28:52.971Z,1.60
2022-11-18T23:31:21.895Z,3.10
2022-11-18T23:33:48.731Z,3.00
2022-11-18T23:36:17.359Z,5.75
2022-11-18T23:38:44.020Z,2.35
2022-11-18T23:41:13.779Z,3.22
2022-11-18T23:43:40.474Z,4.88
2022-11-18T23:46:08.189Z,5.53
2022-11-18T23:48:37.309Z,3.53
2022-11-18T23:51:05.160Z,3.13
2022-11-18T23:53:33.566Z,2.00
2022-11-18T23:56:01.837Z,2.45
2022-11-18T23:58:28.466Z,2.80
